sensor_id;sensor_type;location;lat;lon;timestamp;pressure;altitude;pressure_sealevel;temperature;humidity
37291;BME280;23175;-33.706;151.094;2022-09-16T00:02:13;98813.34;;;14.73;42.36
37291;BME280;23175;-33.706;151.094;2022-09-16T00:04:43;98808.89;;;14.58;42.64
37291;BME280;23175;-33.706;151.094;2022-09-16T00:07:13;98812.31;;;14.93;42.02
37291;BME280;23175;-33.706;151.094;2022-09-16T00:09:44;98811.04;;;13.37;45.51
37291;BME280;23175;-33.706;151.094;2022-09-16T00:12:14;98806.29;;;12.39;45.22
37291;BME280;23175;-33.706;151.094;2022-09-16T00:14:44;98811.23;;;12.73;44.06
37291;BME280;23175;-33.706;151.094;2022-09-16T00:17:14;98818.59;;;12.25;45.15
37291;BME280;23175;-33.706;151.094;2022-09-16T00:19:45;98804.69;;;13.81;43.51
37291;BME280;23175;-33.706;151.094;2022-09-16T00:22:15;98802.72;;;13.18;44.23
37291;BME280;23175;-33.706;151.094;2022-09-16T00:24:46;98797.48;;;14.77;42.88
37291;BME280;23175;-33.706;151.094;2022-09-16T00:27:17;98798.71;;;14.17;42.21
37291;BME280;23175;-33.706;151.094;2022-09-16T00:29:47;98800.34;;;14.69;42.98
37291;BME280;23175;-33.706;151.094;2022-09-16T00:32:17;98797.47;;;13.05;43.37
37291;BME280;23175;-33.706;151.094;2022-09-16T00:34:47;98797.02;;;12.80;44.53
37291;BME280;23175;-33.706;151.094;2022-09-16T01:40:21;98730.48;;;11.99;41.04
37291;BME280;23175;-33.706;151.094;2022-09-16T01:42:59;98723.61;;;15.54;38.35
37291;BME280;23175;-33.706;151.094;2022-09-16T01:45:37;98730.04;;;15.18;38.51
37291;BME280;23175;-33.706;151.094;2022-09-16T01:48:14;98713.25;;;14.95;38.90
37291;BME280;23175;-33.706;151.094;2022-09-16T01:50:49;98704.15;;;15.79;37.31
37291;BME280;23175;-33.706;151.094;2022-09-16T01:53:23;98706.52;;;15.81;37.29
37291;BME280;23175;-33.706;151.094;2022-09-16T01:56:02;98696.38;;;13.70;38.50
37291;BME280;23175;-33.706;151.094;2022-09-16T01:58:42;98699.01;;;14.99;38.03
37291;BME280;23175;-33.706;151.094;2022-09-16T02:01:18;98693.64;;;13.67;36.94
37291;BME280;23175;-33.706;151.094;2022-09-16T02:03:57;98692.08;;;14.75;36.65
37291;BME280;23175;-33.706;151.094;2022-09-16T02:06:30;98682.33;;;15.77;35.03
37291;BME280;23175;-33.706;151.094;2022-09-16T02:09:05;98679.57;;;15.52;37.61
37291;BME280;23175;-33.706;151.094;2022-09-16T02:11:38;98671.14;;;15.09;37.00
37291;BME280;23175;-33.706;151.094;2022-09-16T02:14:15;98667.82;;;15.23;36.16
37291;BME280;23175;-33.706;151.094;2022-09-16T02:16:50;98672.40;;;14.88;34.90
37291;BME280;23175;-33.706;151.094;2022-09-16T02:19:26;98673.74;;;15.57;33.58
37291;BME280;23175;-33.706;151.094;2022-09-16T02:22:00;98659.26;;;16.13;33.93
37291;BME280;23175;-33.706;151.094;2022-09-16T02:24:33;98667.27;;;17.02;32.18
37291;BME280;23175;-33.706;151.094;2022-09-16T02:27:08;98669.50;;;14.26;30.99
37291;BME280;23175;-33.706;151.094;2022-09-16T02:29:43;98668.64;;;15.79;30.83
37291;BME280;23175;-33.706;151.094;2022-09-16T02:32:15;98668.87;;;15.72;28.30
37291;BME280;23175;-33.706;151.094;2022-09-16T02:34:50;98662.77;;;14.79;27.92
37291;BME280;23175;-33.706;151.094;2022-09-16T02:37:24;98658.78;;;15.24;29.16
37291;BME280;23175;-33.706;151.094;2022-09-16T02:39:59;98675.42;;;15.36;27.47
37291;BME280;23175;-33.706;151.094;2022-09-16T02:42:31;98664.61;;;15.55;28.99
37291;BME280;23175;-33.706;151.094;2022-09-16T02:45:02;98657.01;;;15.25;27.32
37291;BME280;23175;-33.706;151.094;2022-09-16T02:47:38;98661.57;;;15.50;27.86
37291;BME280;23175;-33.706;151.094;2022-09-16T02:50:14;98648.24;;;15.50;27.03
37291;BME280;23175;-33.706;151.094;2022-09-16T02:52:48;98646.68;;;16.19;27.43
37291;BME280;23175;-33.706;151.094;2022-09-16T02:55:27;98650.64;;;14.67;26.31
37291;BME280;23175;-33.706;151.094;2022-09-16T02:58:02;98649.87;;;16.34;27.16
37291;BME280;23175;-33.706;151.094;2022-09-16T03:00:34;98638.57;;;16.61;25.71
37291;BME280;23175;-33.706;151.094;2022-09-16T03:03:06;98642.49;;;15.10;29.66
37291;BME280;23175;-33.706;151.094;2022-09-16T03:05:38;98636.88;;;15.96;25.25
37291;BME280;23175;-33.706;151.094;2022-09-16T03:08:33;98633.06;;;16.02;25.77
37291;BME280;23175;-33.706;151.094;2022-09-16T03:11:16;98631.51;;;16.61;27.64
37291;BME280;23175;-33.706;151.094;2022-09-16T03:13:52;98635.00;;;15.98;26.05
37291;BME280;23175;-33.706;151.094;2022-09-16T03:16:29;98640.39;;;14.83;25.73
37291;BME280;23175;-33.706;151.094;2022-09-16T03:19:10;98637.76;;;16.10;26.07
37291;BME280;23175;-33.706;151.094;2022-09-16T03:21:50;98633.66;;;15.03;26.81
37291;BME280;23175;-33.706;151.094;2022-09-16T03:24:33;98626.15;;;15.67;26.43
37291;BME280;23175;-33.706;151.094;2022-09-16T03:27:09;98632.59;;;14.80;26.35
37291;BME280;23175;-33.706;151.094;2022-09-16T03:29:43;98638.78;;;15.78;28.01
37291;BME280;23175;-33.706;151.094;2022-09-16T03:32:19;98625.49;;;14.81;25.90
37291;BME280;23175;-33.706;151.094;2022-09-16T03:34:53;98621.45;;;16.63;26.96
37291;BME280;23175;-33.706;151.094;2022-09-16T03:37:25;98620.43;;;15.66;27.41
37291;BME280;23175;-33.706;151.094;2022-09-16T03:39:59;98630.12;;;15.64;27.52
37291;BME280;23175;-33.706;151.094;2022-09-16T03:42:31;98626.71;;;15.90;27.64
37291;BME280;23175;-33.706;151.094;2022-09-16T03:45:01;98627.67;;;15.66;27.45
37291;BME280;23175;-33.706;151.094;2022-09-16T03:47:31;98623.92;;;15.93;26.64
37291;BME280;23175;-33.706;151.094;2022-09-16T03:50:01;98625.37;;;17.45;26.55
37291;BME280;23175;-33.706;151.094;2022-09-16T03:52:31;98620.05;;;15.50;26.85
37291;BME280;23175;-33.706;151.094;2022-09-16T03:55:01;98617.09;;;15.44;28.35
37291;BME280;23175;-33.706;151.094;2022-09-16T03:57:31;98618.01;;;15.70;28.74
37291;BME280;23175;-33.706;151.094;2022-09-16T04:00:02;98625.79;;;15.92;27.39
37291;BME280;23175;-33.706;151.094;2022-09-16T04:02:33;98626.15;;;15.53;28.03
37291;BME280;23175;-33.706;151.094;2022-09-16T04:05:03;98625.25;;;16.03;26.73
37291;BME280;23175;-33.706;151.094;2022-09-16T04:07:34;98621.76;;;15.69;27.81
37291;BME280;23175;-33.706;151.094;2022-09-16T04:10:05;98625.61;;;18.15;25.62
37291;BME280;23175;-33.706;151.094;2022-09-16T04:12:35;98626.19;;;16.63;27.58
37291;BME280;23175;-33.706;151.094;2022-09-16T04:15:06;98619.86;;;17.62;25.88
37291;BME280;23175;-33.706;151.094;2022-09-16T04:17:36;98615.52;;;15.62;27.20
37291;BME280;23175;-33.706;151.094;2022-09-16T04:20:07;98612.40;;;15.76;27.89
37291;BME280;23175;-33.706;151.094;2022-09-16T04:22:38;98616.89;;;17.47;26.52
37291;BME280;23175;-33.706;151.094;2022-09-16T04:25:09;98622.74;;;14.96;28.58
37291;BME280;23175;-33.706;151.094;2022-09-16T04:27:39;98630.50;;;15.12;27.48
37291;BME280;23175;-33.706;151.094;2022-09-16T04:30:10;98627.53;;;14.83;27.70
37291;BME280;23175;-33.706;151.094;2022-09-16T04:32:40;98628.83;;;15.02;28.56
37291;BME280;23175;-33.706;151.094;2022-09-16T04:35:11;98623.65;;;15.13;27.30
37291;BME280;23175;-33.706;151.094;2022-09-16T04:37:41;98633.60;;;15.00;29.62
37291;BME280;23175;-33.706;151.094;2022-09-16T04:40:11;98633.38;;;15.20;28.51
37291;BME280;23175;-33.706;151.094;2022-09-16T04:42:41;98629.79;;;16.03;25.87
37291;BME280;23175;-33.706;151.094;2022-09-16T04:45:17;98638.23;;;15.35;27.15
37291;BME280;23175;-33.706;151.094;2022-09-16T04:47:46;98634.71;;;16.44;25.87
37291;BME280;23175;-33.706;151.094;2022-09-16T04:50:16;98634.82;;;15.47;26.24
37291;BME280;23175;-33.706;151.094;2022-09-16T04:52:46;98632.15;;;15.56;26.32
37291;BME280;23175;-33.706;151.094;2022-09-16T04:55:17;98626.51;;;15.51;26.85
37291;BME280;23175;-33.706;151.094;2022-09-16T04:57:47;98626.66;;;15.22;26.66
37291;BME280;23175;-33.706;151.094;2022-09-16T05:00:17;98630.92;;;15.18;26.42
37291;BME280;23175;-33.706;151.094;2022-09-16T05:02:47;98635.97;;;15.31;26.01
37291;BME280;23175;-33.706;151.094;2022-09-16T05:05:17;98632.26;;;15.18;26.10
37291;BME280;23175;-33.706;151.094;2022-09-16T05:07:47;98639.40;;;15.28;25.34
37291;BME280;23175;-33.706;151.094;2022-09-16T05:10:17;98639.29;;;15.07;26.38
37291;BME280;23175;-33.706;151.094;2022-09-16T05:12:52;98639.28;;;15.99;25.97
37291;BME280;23175;-33.706;151.094;2022-09-16T05:15:22;98638.96;;;15.99;23.93
37291;BME280;23175;-33.706;151.094;2022-09-16T05:17:53;98648.00;;;15.46;25.12
37291;BME280;23175;-33.706;151.094;2022-09-16T05:20:23;98649.39;;;15.22;25.94
37291;BME280;23175;-33.706;151.094;2022-09-16T05:22:53;98644.16;;;15.46;23.94
37291;BME280;23175;-33.706;151.094;2022-09-16T05:25:23;98650.65;;;15.90;24.82
37291;BME280;23175;-33.706;151.094;2022-09-16T05:27:53;98650.77;;;15.53;25.66
37291;BME280;23175;-33.706;151.094;2022-09-16T05:30:23;98655.16;;;15.55;24.58
37291;BME280;23175;-33.706;151.094;2022-09-16T05:32:54;98651.02;;;17.27;23.89
37291;BME280;23175;-33.706;151.094;2022-09-16T05:35:24;98649.83;;;15.20;25.94
37291;BME280;23175;-33.706;151.094;2022-09-16T05:37:54;98657.51;;;16.03;25.86
37291;BME280;23175;-33.706;151.094;2022-09-16T05:40:27;98656.85;;;16.01;25.47
37291;BME280;23175;-33.706;151.094;2022-09-16T05:42:57;98664.03;;;15.16;25.58
37291;BME280;23175;-33.706;151.094;2022-09-16T05:45:27;98665.07;;;16.30;25.34
37291;BME280;23175;-33.706;151.094;2022-09-16T05:47:57;98661.16;;;15.99;25.15
37291;BME280;23175;-33.706;151.094;2022-09-16T05:50:27;98666.68;;;16.30;24.88
37291;BME280;23175;-33.706;151.094;2022-09-16T05:52:57;98667.67;;;15.98;25.41
37291;BME280;23175;-33.706;151.094;2022-09-16T05:55:27;98668.73;;;15.37;25.35
37291;BME280;23175;-33.706;151.094;2022-09-16T05:57:57;98670.06;;;17.89;24.81
37291;BME280;23175;-33.706;151.094;2022-09-16T06:00:28;98671.76;;;16.08;25.72
37291;BME280;23175;-33.706;151.094;2022-09-16T06:02:58;98672.43;;;15.75;25.50
37291;BME280;23175;-33.706;151.094;2022-09-16T06:05:28;98669.82;;;15.88;26.70
37291;BME280;23175;-33.706;151.094;2022-09-16T06:07:58;98672.09;;;18.23;25.32
37291;BME280;23175;-33.706;151.094;2022-09-16T06:10:28;98671.55;;;17.13;24.01
37291;BME280;23175;-33.706;151.094;2022-09-16T06:12:58;98675.12;;;15.88;26.36
37291;BME280;23175;-33.706;151.094;2022-09-16T06:15:28;98676.57;;;14.82;27.87
37291;BME280;23175;-33.706;151.094;2022-09-16T06:17:58;98667.35;;;16.01;25.91
37291;BME280;23175;-33.706;151.094;2022-09-16T06:20:29;98669.52;;;15.33;26.52
37291;BME280;23175;-33.706;151.094;2022-09-16T06:22:59;98670.70;;;14.91;27.16
37291;BME280;23175;-33.706;151.094;2022-09-16T06:25:30;98672.86;;;14.83;28.21
37291;BME280;23175;-33.706;151.094;2022-09-16T06:28:00;98675.36;;;15.91;27.30
37291;BME280;23175;-33.706;151.094;2022-09-16T06:30:31;98678.67;;;15.73;27.15
37291;BME280;23175;-33.706;151.094;2022-09-16T06:33:01;98682.40;;;15.23;26.47
37291;BME280;23175;-33.706;151.094;2022-09-16T06:35:31;98681.21;;;18.63;24.34
37291;BME280;23175;-33.706;151.094;2022-09-16T06:38:03;98678.31;;;16.17;25.57
37291;BME280;23175;-33.706;151.094;2022-09-16T06:40:33;98683.06;;;18.39;24.24
37291;BME280;23175;-33.706;151.094;2022-09-16T06:43:03;98682.83;;;18.96;24.50
37291;BME280;23175;-33.706;151.094;2022-09-16T06:45:33;98685.99;;;19.33;24.22
37291;BME280;23175;-33.706;151.094;2022-09-16T06:48:03;98684.45;;;18.90;24.85
37291;BME280;23175;-33.706;151.094;2022-09-16T06:50:33;98685.23;;;17.31;24.85
37291;BME280;23175;-33.706;151.094;2022-09-16T06:53:03;98694.77;;;20.07;25.00
37291;BME280;23175;-33.706;151.094;2022-09-16T06:55:33;98695.72;;;17.02;27.19
37291;BME280;23175;-33.706;151.094;2022-09-16T06:58:04;98697.91;;;17.12;28.36
37291;BME280;23175;-33.706;151.094;2022-09-16T07:00:34;98699.87;;;19.60;24.54
37291;BME280;23175;-33.706;151.094;2022-09-16T07:03:04;98703.89;;;19.92;26.59
37291;BME280;23175;-33.706;151.094;2022-09-16T07:05:34;98709.75;;;19.90;26.39
37291;BME280;23175;-33.706;151.094;2022-09-16T07:08:04;98712.47;;;19.51;26.47
37291;BME280;23175;-33.706;151.094;2022-09-16T07:10:34;98716.89;;;17.31;29.39
37291;BME280;23175;-33.706;151.094;2022-09-16T07:13:04;98717.19;;;19.83;25.43
37291;BME280;23175;-33.706;151.094;2022-09-16T07:15:35;98722.72;;;19.69;25.82
37291;BME280;23175;-33.706;151.094;2022-09-16T07:18:06;98729.19;;;18.76;27.34
37291;BME280;23175;-33.706;151.094;2022-09-16T07:20:36;98728.67;;;17.72;28.33
37291;BME280;23175;-33.706;151.094;2022-09-16T07:23:07;98727.91;;;16.88;30.21
37291;BME280;23175;-33.706;151.094;2022-09-16T07:25:37;98730.94;;;17.78;29.94
37291;BME280;23175;-33.706;151.094;2022-09-16T07:28:08;98735.19;;;19.67;28.00
37291;BME280;23175;-33.706;151.094;2022-09-16T07:30:38;98740.80;;;16.53;32.04
37291;BME280;23175;-33.706;151.094;2022-09-16T07:33:09;98740.91;;;16.29;32.38
37291;BME280;23175;-33.706;151.094;2022-09-16T07:35:39;98739.59;;;19.46;29.54
37291;BME280;23175;-33.706;151.094;2022-09-16T07:38:09;98744.39;;;16.32;33.12
37291;BME280;23175;-33.706;151.094;2022-09-16T07:40:39;98749.65;;;18.90;30.94
37291;BME280;23175;-33.706;151.094;2022-09-16T07:43:09;98756.19;;;18.62;30.95
37291;BME280;23175;-33.706;151.094;2022-09-16T07:45:39;98758.72;;;16.45;33.93
37291;BME280;23175;-33.706;151.094;2022-09-16T07:48:09;98766.38;;;18.77;30.99
37291;BME280;23175;-33.706;151.094;2022-09-16T07:50:40;98766.00;;;19.15;29.91
37291;BME280;23175;-33.706;151.094;2022-09-16T07:53:10;98766.41;;;19.40;29.75
37291;BME280;23175;-33.706;151.094;2022-09-16T07:55:40;98776.39;;;17.61;31.09
37291;BME280;23175;-33.706;151.094;2022-09-16T07:58:10;98782.55;;;17.44;31.85
37291;BME280;23175;-33.706;151.094;2022-09-16T08:00:41;98778.82;;;18.95;30.73
37291;BME280;23175;-33.706;151.094;2022-09-16T08:03:11;98786.93;;;17.23;32.47
37291;BME280;23175;-33.706;151.094;2022-09-16T08:05:42;98791.72;;;18.65;32.37
37291;BME280;23175;-33.706;151.094;2022-09-16T08:08:12;98792.72;;;15.65;34.61
37291;BME280;23175;-33.706;151.094;2022-09-16T08:10:42;98798.25;;;17.27;34.02
37291;BME280;23175;-33.706;151.094;2022-09-16T08:13:12;98802.27;;;16.73;32.42
37291;BME280;23175;-33.706;151.094;2022-09-16T08:15:43;98808.65;;;15.83;34.81
37291;BME280;23175;-33.706;151.094;2022-09-16T08:18:13;98816.11;;;13.89;37.79
37291;BME280;23175;-33.706;151.094;2022-09-16T08:20:44;98819.00;;;15.56;36.01
37291;BME280;23175;-33.706;151.094;2022-09-16T08:23:14;98820.95;;;14.89;35.02
37291;BME280;23175;-33.706;151.094;2022-09-16T08:25:45;98823.23;;;16.37;36.14
37291;BME280;23175;-33.706;151.094;2022-09-16T08:28:15;98829.14;;;15.94;35.05
37291;BME280;23175;-33.706;151.094;2022-09-16T08:30:46;98834.76;;;15.66;34.95
37291;BME280;23175;-33.706;151.094;2022-09-16T08:33:16;98828.66;;;17.21;31.27
37291;BME280;23175;-33.706;151.094;2022-09-16T08:35:46;98826.92;;;15.49;32.78
37291;BME280;23175;-33.706;151.094;2022-09-16T08:38:16;98834.97;;;16.81;30.27
37291;BME280;23175;-33.706;151.094;2022-09-16T08:40:47;98837.09;;;14.19;32.71
37291;BME280;23175;-33.706;151.094;2022-09-16T08:43:21;98836.76;;;15.75;30.95
37291;BME280;23175;-33.706;151.094;2022-09-16T08:45:59;98837.77;;;16.96;29.93
37291;BME280;23175;-33.706;151.094;2022-09-16T08:48:37;98841.42;;;18.04;30.25
37291;BME280;23175;-33.706;151.094;2022-09-16T08:51:16;98848.80;;;16.76;31.33
37291;BME280;23175;-33.706;151.094;2022-09-16T08:53:50;98858.09;;;17.44;32.25
37291;BME280;23175;-33.706;151.094;2022-09-16T08:56:24;98863.20;;;16.25;34.23
37291;BME280;23175;-33.706;151.094;2022-09-16T08:58:57;98865.21;;;16.06;34.32
37291;BME280;23175;-33.706;151.094;2022-09-16T09:01:33;98869.58;;;15.25;35.78
37291;BME280;23175;-33.706;151.094;2022-09-16T09:04:06;98874.87;;;15.33;36.24
37291;BME280;23175;-33.706;151.094;2022-09-16T09:06:50;98884.75;;;16.21;34.45
37291;BME280;23175;-33.706;151.094;2022-09-16T09:09:31;98889.09;;;15.32;36.08
37291;BME280;23175;-33.706;151.094;2022-09-16T09:12:09;98897.50;;;16.67;35.68
37291;BME280;23175;-33.706;151.094;2022-09-16T09:14:50;98903.20;;;16.82;34.37
37291;BME280;23175;-33.706;151.094;2022-09-16T09:17:38;98905.68;;;13.45;38.59
37291;BME280;23175;-33.706;151.094;2022-09-16T09:20:20;98906.96;;;15.69;34.87
37291;BME280;23175;-33.706;151.094;2022-09-16T09:23:04;98912.74;;;13.42;35.10
37291;BME280;23175;-33.706;151.094;2022-09-16T09:25:45;98916.54;;;16.98;30.50
37291;BME280;23175;-33.706;151.094;2022-09-16T09:28:31;98923.10;;;14.03;34.35
37291;BME280;23175;-33.706;151.094;2022-09-16T09:31:10;98927.03;;;14.54;34.15
37291;BME280;23175;-33.706;151.094;2022-09-16T09:33:48;98925.82;;;16.79;31.46
37291;BME280;23175;-33.706;151.094;2022-09-16T09:36:32;98924.04;;;14.49;32.62
37291;BME280;23175;-33.706;151.094;2022-09-16T09:39:27;98927.38;;;17.93;30.53
37291;BME280;23175;-33.706;151.094;2022-09-16T09:42:04;98929.27;;;15.39;32.95
37291;BME280;23175;-33.706;151.094;2022-09-16T09:44:51;98934.44;;;16.50;34.43
37291;BME280;23175;-33.706;151.094;2022-09-16T09:47:29;98938.96;;;17.92;32.68
37291;BME280;23175;-33.706;151.094;2022-09-16T09:50:12;98945.81;;;16.91;34.52
37291;BME280;23175;-33.706;151.094;2022-09-16T09:52:49;98950.41;;;17.16;34.33
37291;BME280;23175;-33.706;151.094;2022-09-16T09:55:32;98956.24;;;18.06;32.31
37291;BME280;23175;-33.706;151.094;2022-09-16T09:58:13;98952.38;;;13.98;37.05
37291;BME280;23175;-33.706;151.094;2022-09-16T10:00:45;98952.86;;;15.30;36.36
37291;BME280;23175;-33.706;151.094;2022-09-16T10:03:18;98955.54;;;12.77;39.88
37291;BME280;23175;-33.706;151.094;2022-09-16T10:05:48;98954.64;;;16.07;35.90
37291;BME280;23175;-33.706;151.094;2022-09-16T10:08:24;98954.15;;;16.23;35.57
37291;BME280;23175;-33.706;151.094;2022-09-16T10:10:57;98957.20;;;14.23;38.88
37291;BME280;23175;-33.706;151.094;2022-09-16T10:13:29;98960.44;;;15.79;36.80
37291;BME280;23175;-33.706;151.094;2022-09-16T10:16:11;98960.12;;;14.69;37.68
37291;BME280;23175;-33.706;151.094;2022-09-16T10:18:43;98956.03;;;13.37;38.68
37291;BME280;23175;-33.706;151.094;2022-09-16T10:21:15;98951.43;;;14.67;36.92
37291;BME280;23175;-33.706;151.094;2022-09-16T10:23:55;98956.09;;;14.69;37.01
37291;BME280;23175;-33.706;151.094;2022-09-16T10:26:27;98958.26;;;15.54;37.56
37291;BME280;23175;-33.706;151.094;2022-09-16T10:28:59;98966.33;;;13.57;40.65
37291;BME280;23175;-33.706;151.094;2022-09-16T10:31:34;98961.26;;;14.76;38.70
37291;BME280;23175;-33.706;151.094;2022-09-16T10:34:16;98965.06;;;15.13;37.74
37291;BME280;23175;-33.706;151.094;2022-09-16T10:36:56;98964.23;;;15.46;37.51
37291;BME280;23175;-33.706;151.094;2022-09-16T10:39:29;98970.12;;;15.24;37.61
37291;BME280;23175;-33.706;151.094;2022-09-16T10:42:00;98968.65;;;15.00;37.28
37291;BME280;23175;-33.706;151.094;2022-09-16T10:44:32;98971.41;;;14.40;38.83
37291;BME280;23175;-33.706;151.094;2022-09-16T10:47:13;98974.75;;;15.47;37.86
37291;BME280;23175;-33.706;151.094;2022-09-16T10:49:47;98976.58;;;15.54;37.76
37291;BME280;23175;-33.706;151.094;2022-09-16T10:52:21;98985.27;;;12.87;39.46
37291;BME280;23175;-33.706;151.094;2022-09-16T10:54:52;98976.61;;;13.88;37.78
37291;BME280;23175;-33.706;151.094;2022-09-16T10:57:26;98974.95;;;16.63;34.40
37291;BME280;23175;-33.706;151.094;2022-09-16T11:00:00;98982.15;;;15.79;36.47
37291;BME280;23175;-33.706;151.094;2022-09-16T11:02:45;98981.41;;;14.90;36.90
37291;BME280;23175;-33.706;151.094;2022-09-16T11:05:22;98978.07;;;13.26;35.90
37291;BME280;23175;-33.706;151.094;2022-09-16T11:08:02;98984.83;;;11.52;37.24
37291;BME280;23175;-33.706;151.094;2022-09-16T11:10:40;98977.95;;;15.05;30.24
37291;BME280;23175;-33.706;151.094;2022-09-16T11:13:28;98980.35;;;15.49;30.84
37291;BME280;23175;-33.706;151.094;2022-09-16T11:16:14;98990.51;;;13.26;34.65
37291;BME280;23175;-33.706;151.094;2022-09-16T11:18:56;98990.23;;;15.94;31.50
37291;BME280;23175;-33.706;151.094;2022-09-16T11:22:05;98991.29;;;15.90;29.87
37291;BME280;23175;-33.706;151.094;2022-09-16T11:25:29;98998.71;;;12.17;35.28
37291;BME280;23175;-33.706;151.094;2022-09-16T11:28:19;98997.28;;;15.03;30.58
37291;BME280;23175;-33.706;151.094;2022-09-16T11:30:59;99000.69;;;15.51;30.13
37291;BME280;23175;-33.706;151.094;2022-09-16T11:33:40;99006.64;;;15.83;31.12
37291;BME280;23175;-33.706;151.094;2022-09-16T11:36:24;99003.67;;;16.45;31.89
37291;BME280;23175;-33.706;151.094;2022-09-16T11:39:10;99005.14;;;17.06;32.07
37291;BME280;23175;-33.706;151.094;2022-09-16T11:41:49;99005.38;;;16.16;33.90
37291;BME280;23175;-33.706;151.094;2022-09-16T11:44:37;99004.10;;;17.02;32.49
37291;BME280;23175;-33.706;151.094;2022-09-16T11:47:27;99004.62;;;15.34;34.01
37291;BME280;23175;-33.706;151.094;2022-09-16T11:50:11;99003.54;;;15.84;33.28
37291;BME280;23175;-33.706;151.094;2022-09-16T11:52:54;99003.28;;;16.54;31.90
37291;BME280;23175;-33.706;151.094;2022-09-16T11:55:37;99001.40;;;16.60;31.74
37291;BME280;23175;-33.706;151.094;2022-09-16T11:58:25;98999.88;;;15.96;32.58
37291;BME280;23175;-33.706;151.094;2022-09-16T12:00:58;99000.37;;;16.06;34.43
37291;BME280;23175;-33.706;151.094;2022-09-16T12:03:36;99001.51;;;16.62;33.38
37291;BME280;23175;-33.706;151.094;2022-09-16T12:06:11;99001.79;;;14.30;33.92
37291;BME280;23175;-33.706;151.094;2022-09-16T12:08:52;98995.23;;;15.80;31.71
37291;BME280;23175;-33.706;151.094;2022-09-16T12:11:26;98995.60;;;13.47;32.35
37291;BME280;23175;-33.706;151.094;2022-09-16T12:14:02;98995.09;;;15.11;30.74
37291;BME280;23175;-33.706;151.094;2022-09-16T12:16:38;98994.85;;;14.27;30.36
37291;BME280;23175;-33.706;151.094;2022-09-16T12:19:14;98992.02;;;15.40;30.33
37291;BME280;23175;-33.706;151.094;2022-09-16T12:21:50;98989.45;;;14.99;31.60
37291;BME280;23175;-33.706;151.094;2022-09-16T12:24:25;98990.10;;;13.87;32.89
37291;BME280;23175;-33.706;151.094;2022-09-16T12:27:03;98983.13;;;14.46;33.57
37291;BME280;23175;-33.706;151.094;2022-09-16T12:29:40;98982.67;;;15.08;32.89
37291;BME280;23175;-33.706;151.094;2022-09-16T12:32:17;98977.84;;;14.29;30.87
37291;BME280;23175;-33.706;151.094;2022-09-16T12:34:51;98975.67;;;15.58;33.10
37291;BME280;23175;-33.706;151.094;2022-09-16T12:37:32;98978.63;;;15.49;32.38
37291;BME280;23175;-33.706;151.094;2022-09-16T12:40:12;98979.09;;;16.30;32.97
37291;BME280;23175;-33.706;151.094;2022-09-16T12:43:09;98978.52;;;14.02;33.89
37291;BME280;23175;-33.706;151.094;2022-09-16T12:46:12;98972.94;;;16.80;32.66
37291;BME280;23175;-33.706;151.094;2022-09-16T12:49:06;98970.42;;;16.87;32.62
37291;BME280;23175;-33.706;151.094;2022-09-16T12:56:13;98954.03;;;15.67;33.66
37291;BME280;23175;-33.706;151.094;2022-09-16T12:59:05;98955.36;;;16.77;32.34
37291;BME280;23175;-33.706;151.094;2022-09-16T13:01:44;98956.62;;;14.98;35.18
37291;BME280;23175;-33.706;151.094;2022-09-16T13:04:20;98957.22;;;13.22;35.21
37291;BME280;23175;-33.706;151.094;2022-09-16T13:06:52;98958.82;;;16.81;30.31
37291;BME280;23175;-33.706;151.094;2022-09-16T13:09:25;98955.13;;;14.97;31.05
37291;BME280;23175;-33.706;151.094;2022-09-16T13:11:57;98953.68;;;13.28;32.60
37291;BME280;23175;-33.706;151.094;2022-09-16T13:14:31;98951.47;;;13.92;31.72
37291;BME280;23175;-33.706;151.094;2022-09-16T13:17:03;98946.46;;;15.73;30.91
37291;BME280;23175;-33.706;151.094;2022-09-16T13:19:40;98944.34;;;16.35;31.36
37291;BME280;23175;-33.706;151.094;2022-09-16T13:22:25;98939.54;;;14.95;31.35
37291;BME280;23175;-33.706;151.094;2022-09-16T13:25:07;98934.05;;;15.59;33.01
37291;BME280;23175;-33.706;151.094;2022-09-16T13:27:56;98931.21;;;16.61;30.13
37291;BME280;23175;-33.706;151.094;2022-09-16T13:30:33;98928.08;;;16.97;30.44
37291;BME280;23175;-33.706;151.094;2022-09-16T13:33:23;98926.54;;;15.05;33.58
37291;BME280;23175;-33.706;151.094;2022-09-16T13:36:29;98926.57;;;13.39;34.85
37291;BME280;23175;-33.706;151.094;2022-09-16T13:39:00;98919.99;;;15.70;31.91
37291;BME280;23175;-33.706;151.094;2022-09-16T13:41:35;98920.64;;;13.98;33.19
37291;BME280;23175;-33.706;151.094;2022-09-16T13:44:29;98915.19;;;15.52;32.64
37291;BME280;23175;-33.706;151.094;2022-09-16T13:47:31;98916.72;;;15.81;31.56
37291;BME280;23175;-33.706;151.094;2022-09-16T13:50:11;98918.33;;;16.74;29.70
37291;BME280;23175;-33.706;151.094;2022-09-16T13:52:42;98919.26;;;16.57;29.91
37291;BME280;23175;-33.706;151.094;2022-09-16T13:55:22;98921.41;;;15.50;31.17
37291;BME280;23175;-33.706;151.094;2022-09-16T13:58:01;98922.89;;;16.77;32.95
37291;BME280;23175;-33.706;151.094;2022-09-16T14:00:39;98922.02;;;16.98;32.69
37291;BME280;23175;-33.706;151.094;2022-09-16T14:03:58;98925.13;;;16.48;33.11
37291;BME280;23175;-33.706;151.094;2022-09-16T14:07:13;98921.58;;;15.07;34.38
37291;BME280;23175;-33.706;151.094;2022-09-16T14:09:54;98915.51;;;16.09;31.43
37291;BME280;23175;-33.706;151.094;2022-09-16T14:12:36;98915.88;;;15.76;35.02
37291;BME280;23175;-33.706;151.094;2022-09-16T14:15:12;98909.97;;;16.15;32.04
37291;BME280;23175;-33.706;151.094;2022-09-16T14:17:46;98906.60;;;14.87;36.35
37291;BME280;23175;-33.706;151.094;2022-09-16T14:20:20;98904.24;;;15.79;33.43